Go Pro

Definium Therapeutics (DFTX) Institutional Ownership

Definium Therapeutics logo
$38.00 -0.90 (-2.31%)
As of 04:00 PM Eastern

Institutional Ownership Changes (13F Filings) for Definium Therapeutics (NASDAQ:DFTX)

Current
Institutional Ownership
Percentage
27.91%
Number of
Institutional Buyers
(last 12 months)
46
Total
Institutional Inflows
(last 12 months)
$462.64M
Number of
Institutional Sellers
(last 12 months)
20
Total
Institutional Outflows
(last 12 months)
$65.25M
Get DFTX Insider Trade Alerts

Want to know when executives and insiders are buying or selling Definium Therapeutics stock? Sign up for InsiderTrades.com's daily newsletter to get the latest insider transactions delivered to your inbox daily.

SMS is currently available in Australia, Belgium, Canada, France, Germany, Ireland, Italy, New Zealand, the Netherlands, Singapore, South Africa, Spain, Switzerland, the United Kingdom, and the United States. By entering your phone number and clicking the sign-up button, you agree to receive periodic text messages from MarketBeat at the phone number you submitted, including texts that may be sent using an automatic telephone dialing system. Message and data rates may apply. Message frequency will vary. Messages will consist of stock alerts, news stories, and partner advertisements/offers. Consent is not a condition of the purchase of any goods or services. Text HELP for help/customer support. Unsubscribe at any time by replying "STOP" to any text message that you receive from MarketBeat or by visiting our mailing preferences page. Read our full terms of service and privacy policy.
Skip Chart & View Institutional Buying and Selling Data

DFTX Institutional Buying and Selling by Quarter

Definium Therapeutics Major Shareholders & Ownership History

Reporting DateMajor Shareholder NameShares HeldMarket Value% of PortfolioQuarterly Change in SharesOwnership in CompanyDetails
9/2/2026 Allianz Asset Management GmbH13,800$649K0.0%N/A0.010%
8/27/2026 Corient Private Wealth LP24,391$1.15M0.0%N/A0.018%
8/24/2026 California State Teachers Retirement System6,037,396$284.00M0.0%N/A4.493%
8/22/2026 Seven Fleet Capital Management LP148,647$6.99M1.2%N/A0.111%
8/22/2026 TD Waterhouse Canada Inc.36,694$1.59M0.0%N/A0.027%
8/22/2026 Concurrent Investment Advisors LLC20,044$943K0.0%N/A0.015%
8/21/2026 AXQ Capital LP12,444$585K0.1%N/A0.009%
8/21/2026 Nykredit A S947$45K0.0%N/A0.001%
8/19/2026 Wellington Management Group LLP2,949,734$138.76M0.0%N/A2.195%
8/15/2026 AWM Investment Company Inc.784,800$36.92M3.2%-27.1%0.584%
8/6/2026 Bank of New York Mellon Corp777,271$36.56M0.0%+3.2%0.780%
1/21/2026 Palumbo Wealth Management LLC39,002$522K0.1%+18.4%0.040%
1/21/2026 Flagship Harbor Advisors LLC8,721$117K0.0%N/A0.009%
1/7/2026 Bay Rivers Group16,001$214K0.1%+14.3%0.016%
1/1/2026 JPMorgan Chase & Co.43,182$509K0.0%-10.9%0.044%
12/15/2025 FNY Investment Advisers LLC9,094$107K0.0%N/A0.009%
11/17/2025 Caxton Associates LLP10,645$126K0.0%N/A0.011%
11/17/2025 Sender Co & Partners Inc.25,906$305K0.0%N/A0.026%
11/17/2025 Scientech Research LLC24,239$286K0.1%N/A0.025%
11/17/2025 Mercer Global Advisors Inc. ADV21,931$259K0.0%+10.5%0.022%
11/17/2025 Millennium Management LLC298,205$3.52M0.0%+62.6%0.303%
11/17/2025 MIRAE ASSET GLOBAL ETFS HOLDINGS Ltd.35,397$417K0.0%-14.2%0.036%
11/17/2025 Boxer Capital Management LLC163,500$1.93M0.6%N/A0.166%
11/17/2025 Commodore Capital LP3,225,000$38.02M1.9%-35.5%3.274%
11/17/2025 Bank of America Corp DE84,011$990K0.0%-29.5%0.085%
11/17/2025 Caxton Corp27,011$318K1.4%-20.7%0.027%
11/17/2025 Boothbay Fund Management LLC67,984$802K0.0%+278.0%0.069%
11/17/2025 Ally Bridge Group NY LLC361,444$4.26M2.6%-50.2%0.367%
11/14/2025 Schonfeld Strategic Advisors LLC35,510$419K0.0%N/A0.036%
11/14/2025 Creative Planning11,909$140K0.0%-82.0%0.012%
11/14/2025 Virtu Financial LLC32,184$379K0.0%N/A0.042%
11/14/2025 Deep Track Capital LP1,500,000$17.69M0.5%-40.0%1.971%
11/14/2025 Orbimed Advisors LLC367,824$4.34M0.1%N/A0.483%
11/14/2025 UBS AM A Distinct Business Unit of UBS Asset Management Americas LLC117,239$1.38M0.0%+178.3%0.154%
11/14/2025 Two Sigma Investments LP296,443$3.50M0.0%+424.9%0.390%
11/13/2025 Marshall Wace LLP2,381,980$28.08M0.0%-30.4%3.130%
11/13/2025 Rosalind Advisors Inc.750,000$8.84M3.1%+78.6%0.986%
11/13/2025 UBS Group AG551,809$6.51M0.0%+7.3%0.725%
11/13/2025 BNP Paribas Financial Markets15,320$181K0.0%+82.0%0.020%
11/13/2025 Legal & General Group Plc55,019$649K0.0%-3.0%0.072%
Ticker Revealed: Pre-IPO Access to "Next Elon Musk" Company (Ad)

We’ve found The Next Elon Musk… and what we believe to be the next Tesla. It’s already racked up $26 billion in government contracts. Peter Thiel just bet $1 Billion on it.tc pixel

👉 Unlock the ticker now and get it completely free.
11/13/2025 Russell Investments Group Ltd.13,703$162K0.0%+259.0%0.018%
11/13/2025 Rathbones Group PLC30,200$356K0.0%+7.1%0.040%
11/13/2025 Dynamic Technology Lab Private Ltd10,352$122K0.0%-29.2%0.014%
11/13/2025 Blair William & Co. IL31,905$376K0.0%+43.6%0.042%
11/12/2025 Barclays PLC150,605$1.78M0.0%-14.1%0.198%
11/12/2025 Royce & Associates LP81,024$955K0.0%N/A0.106%
11/12/2025 Rafferty Asset Management LLC12,675$149K0.0%N/A0.017%
11/12/2025 Intech Investment Management LLC27,134$320K0.0%-28.0%0.036%
11/12/2025 Fox Run Management L.L.C.51,692$609K0.1%N/A0.068%
11/10/2025 Palumbo Wealth Management LLC32,929$388K0.1%+37.0%0.043%
11/10/2025 AXQ Capital LP15,585$184K0.1%N/A0.020%
11/10/2025 China Universal Asset Management Co. Ltd.13,337$157K0.0%-12.1%0.018%
11/10/2025 BIT Capital GmbH2,245$26K0.0%N/A0.003%
11/10/2025 Persistent Asset Partners Ltd24,282$286K0.2%-33.7%0.032%
11/7/2025 CenterBook Partners LP159,421$1.88M0.1%N/A0.210%
11/7/2025 GSA Capital Partners LLP55,489$654K0.1%N/A0.073%
11/7/2025Vanguard Group Inc.2,012,874$23.73M0.0%+11.0%2.645%
11/7/2025 Fifth Third Bancorp3,359$40K0.0%+5,593.2%0.004%
11/7/2025 JPMorgan Chase & Co.43,182$509K0.0%-10.9%0.057%
11/6/2025 Rhumbline Advisers112,118$1.32M0.0%-2.8%0.147%
11/6/2025 Profund Advisors LLC18,666$220K0.0%+36.2%0.025%
11/6/2025 ProShare Advisors LLC15,592$184K0.0%-14.6%0.020%
11/5/2025 AdvisorShares Investments LLC121,664$1.43M0.2%+11.0%0.160%
11/5/2025Moloney Securities Asset Management LLC23,511$277K0.0%-25.4%0.031%
11/4/2025 Money Concepts Capital Corp13,000$153K0.0%N/A0.017%
10/31/2025 Stoneridge Investment Partners LLC11,563$136K0.1%+7.5%0.015%
10/23/2025 Nisa Investment Advisors LLC48,378$570K0.0%+1,332.1%0.064%
10/10/2025 Sound Income Strategies LLC3,681$46K0.0%N/A0.005%
10/9/2025 Voya Investment Management LLC14,282$168K0.0%-32.8%0.019%
10/8/2025 Bay Rivers Group14,001$165K0.1%+20.5%0.018%
8/15/2025 Tower Research Capital LLC TRC 8,856$57K0.0%-22.1%0.012%
8/15/2025 Octagon Capital Advisors LP2,130,000$13.82M3.0%-29.4%2.799%
8/15/2025 BNP Paribas Financial Markets8,417$55K0.0%+56.0%0.011%
8/15/2025 Bank of America Corp DE119,214$774K0.0%+35.1%0.157%
8/15/2025 AWM Investment Company Inc.1,215,662$7.89M0.9%+0.6%1.598%
8/14/2025 Commodore Capital LP5,000,000$32.45M2.3%+10.5%6.571%
8/14/2025 California State Teachers Retirement System57,288$372K0.0%-2.1%0.075%
8/14/2025 Raymond James Financial Inc.17,029$111K0.0%-7.8%0.022%
8/14/2025 MIRAE ASSET GLOBAL ETFS HOLDINGS Ltd.41,261$268K0.0%-5.3%0.054%
8/14/2025 Diadema Partners LP158,536$1.03M0.3%N/A0.208%
8/14/2025 Stempoint Capital LP90,852$590K0.2%N/A0.119%
8/14/2025 Cerity Partners LLC49,650$322K0.0%+2.4%0.065%
8/13/2025 Marshall Wace LLP3,421,224$22.20M0.0%+31.9%4.496%
8/13/2025 Virtus Investment Advisers LLC12,881$84K0.0%-44.9%0.017%
8/13/2025 Russell Investments Group Ltd.3,817$25K0.0%+110.4%0.005%
8/12/2025 XTX Topco Ltd32,402$210K0.0%+9.7%0.043%
8/12/2025 Rhumbline Advisers115,296$748K0.0%+6.3%0.152%
8/12/2025 JPMorgan Chase & Co.48,487$315K0.0%+5.1%0.064%
8/12/2025 Swiss National Bank115,100$747K0.0%+8.0%0.151%
8/12/2025 Dynamic Technology Lab Private Ltd14,623$95K0.0%N/A0.019%
ALERT: Drop these 5 stocks before the market opens tomorrow! (Ad)

The Wall Street Journal is already raising the alarm about a potential market crash, and Weiss Ratings research points to the first half of 2026 as a particularly rough stretch for certain holdings. Some of America's most popular stocks could take serious damage as a radical market shift plays out. Analysts at Weiss Ratings have identified five names you may want to remove from your portfolio before this unfolds. If any of these are in your portfolio, now is the time to review your positions.tc pixel

8/11/2025 Persistent Asset Partners Ltd36,642$238K0.2%N/A0.048%
8/8/2025 Intech Investment Management LLC37,686$245K0.0%-31.5%0.050%
8/8/2025 Creative Planning66,097$429K0.0%+2.6%0.087%
8/8/2025 Geode Capital Management LLC1,733,454$11.25M0.0%+4.0%2.294%
8/7/2025 Profund Advisors LLC13,707$89K0.0%-21.7%0.018%
8/5/2025 Bank of Montreal Can11,919$77K0.0%-21.1%0.016%
8/4/2025 AdvisorShares Investments LLC109,593$711K0.1%-8.4%0.145%
8/1/2025 Teacher Retirement System of Texas16,260$106K0.0%+9.4%0.022%
7/31/2025Moloney Securities Asset Management LLC31,511$205K0.0%-12.5%0.042%
7/25/2025CWM LLC4,459$29K0.0%+67.4%0.006%


DFTX Institutional Ownership - Frequently Asked Questions

During the previous two years, 137 institutional investors and hedge funds held shares of Definium Therapeutics. The most heavily invested institutionals were California State Teachers Retirement System ($284.00M), Wellington Management Group LLP ($138.76M), Commodore Capital LP ($38.02M), AWM Investment Company Inc. ($36.92M), Bank of New York Mellon Corp ($36.56M), Marshall Wace LLP ($28.08M), and Blackstone Inc. ($24.97M).Learn more on Definium Therapeutics' institutional investors.

27.91% of Definium Therapeutics' stock is owned by institutional investors. Learn more on DFTX's institutional investor holdings.

Of the 117 institutional investors that purchased Definium Therapeutics' stock in the last 24 months, the following investors and hedge funds have bought the highest volume of shares: California State Teachers Retirement System ($6.04M), Wellington Management Group LLP ($3.11M), Marshall Wace LLP ($1.04M), Commodore Capital LP ($475K), Orbimed Advisors LLC ($367.82K), AWM Investment Company Inc. ($362.66K), and Rosalind Advisors Inc. ($330K).

Institutional investors have bought a total of 11,503,034 shares in the last 24 months. This purchase volume represents approximately $462.64M in transactions.

Of the 20 institutional investors that sold Definium Therapeutics' stock in the last 24 months, the following investors and hedge funds have sold the highest volume of shares: Commodore Capital LP ($1.78M), Marshall Wace LLP ($1.04M), Deep Track Capital LP ($1M), Ally Bridge Group NY LLC ($364.73K), AWM Investment Company Inc. ($292.09K), Creative Planning ($54.19K), and Bank of America Corp DE ($35.20K).

Institutional investors have sold a total of 4,660,158 shares in the last 24 months. This volume of shares sold represents approximately $65.25M in transactions.



Institutional ownership data for NASDAQ:DFTX is compiled from quarterly 13F filings submitted to the U.S. Securities and Exchange Commission (SEC), with the most recent received on 9/2/2026. New 13F filings are added each quarter as they're published.
From Our Partners